sensor_id;sensor_type;location;lat;lon;timestamp;pressure;altitude;pressure_sealevel;temperature;humidity
53858;BME280;39763;51.188;6.690;2022-10-16T00:01:21;100764.56;;;15.84;79.78
53858;BME280;39763;51.188;6.690;2022-10-16T00:02:53;100765.50;;;15.83;79.56
53858;BME280;39763;51.188;6.690;2022-10-16T00:04:24;100763.88;;;15.80;79.54
53858;BME280;39763;51.188;6.690;2022-10-16T00:05:58;100773.69;;;15.78;79.99
53858;BME280;39763;51.188;6.690;2022-10-16T00:07:30;100774.63;;;15.77;79.53
53858;BME280;39763;51.188;6.690;2022-10-16T00:09:02;100771.19;;;15.75;79.86
53858;BME280;39763;51.188;6.690;2022-10-16T00:10:34;100767.69;;;15.75;79.75
53858;BME280;39763;51.188;6.690;2022-10-16T00:12:06;100764.19;;;15.74;79.91
53858;BME280;39763;51.188;6.690;2022-10-16T00:13:41;100774.63;;;15.77;79.82
53858;BME280;39763;51.188;6.690;2022-10-16T00:15:14;100775.56;;;15.76;79.94
53858;BME280;39763;51.188;6.690;2022-10-16T00:16:46;100782.72;;;15.74;79.49
53858;BME280;39763;51.188;6.690;2022-10-16T00:18:18;100781.97;;;15.72;79.77
53858;BME280;39763;51.188;6.690;2022-10-16T00:19:49;100784.69;;;15.71;79.65
53858;BME280;39763;51.188;6.690;2022-10-16T00:21:23;100775.97;;;15.69;79.64
53858;BME280;39763;51.188;6.690;2022-10-16T00:22:55;100784.06;;;15.66;79.58
53858;BME280;39763;51.188;6.690;2022-10-16T00:24:28;100773.56;;;15.64;79.99
53858;BME280;39763;51.188;6.690;2022-10-16T00:26:01;100777.16;;;15.63;80.14
53858;BME280;39763;51.188;6.690;2022-10-16T00:27:33;100777.16;;;15.63;80.09
53858;BME280;39763;51.188;6.690;2022-10-16T00:29:05;100780.66;;;15.64;80.19
53858;BME280;39763;51.188;6.690;2022-10-16T00:30:39;100782.44;;;15.63;79.87
53858;BME280;39763;51.188;6.690;2022-10-16T00:32:11;100772.72;;;15.64;79.67
53858;BME280;39763;51.188;6.690;2022-10-16T00:33:43;100768.28;;;15.64;79.92
53858;BME280;39763;51.188;6.690;2022-10-16T00:35:15;100765.69;;;15.63;79.74
53858;BME280;39763;51.188;6.690;2022-10-16T00:36:46;100774.56;;;15.62;80.09
53858;BME280;39763;51.188;6.690;2022-10-16T00:38:18;100765.78;;;15.61;80.03
53858;BME280;39763;51.188;6.690;2022-10-16T00:39:50;100766.72;;;15.60;80.14
53858;BME280;39763;51.188;6.690;2022-10-16T00:41:23;100765.97;;;15.58;80.07
53858;BME280;39763;51.188;6.690;2022-10-16T00:42:55;100761.50;;;15.59;79.98
53858;BME280;39763;51.188;6.690;2022-10-16T00:44:44;100766.72;;;15.60;79.65
53858;BME280;39763;51.188;6.690;2022-10-16T00:46:20;100763.13;;;15.61;80.00
53858;BME280;39763;51.188;6.690;2022-10-16T00:47:54;100759.56;;;15.62;79.58
53858;BME280;39763;51.188;6.690;2022-10-16T00:49:27;100758.63;;;15.63;79.99
53858;BME280;39763;51.188;6.690;2022-10-16T00:51:01;100755.88;;;15.65;79.77
53858;BME280;39763;51.188;6.690;2022-10-16T00:52:32;100753.16;;;15.66;79.69
53858;BME280;39763;51.188;6.690;2022-10-16T00:54:08;100760.09;;;15.69;79.28
53858;BME280;39763;51.188;6.690;2022-10-16T00:55:41;100760.00;;;15.70;79.22
53858;BME280;39763;51.188;6.690;2022-10-16T00:57:13;100762.66;;;15.70;79.48
53858;BME280;39763;51.188;6.690;2022-10-16T00:58:50;100765.38;;;15.69;79.27
53858;BME280;39763;51.188;6.690;2022-10-16T01:00:24;100761.88;;;15.68;79.21
53858;BME280;39763;51.188;6.690;2022-10-16T01:02:00;100759.22;;;15.68;79.49
53858;BME280;39763;51.188;6.690;2022-10-16T01:03:34;100760.94;;;15.69;79.45
53858;BME280;39763;51.188;6.690;2022-10-16T01:05:07;100762.66;;;15.70;79.13
53858;BME280;39763;51.188;6.690;2022-10-16T01:06:44;100761.81;;;15.70;78.84
53858;BME280;39763;51.188;6.690;2022-10-16T01:08:22;100762.81;;;15.67;78.97
53858;BME280;39763;51.188;6.690;2022-10-16T01:10:07;100771.84;;;15.63;79.12
53858;BME280;39763;51.188;6.690;2022-10-16T01:11:45;100775.69;;;15.58;79.27
53858;BME280;39763;51.188;6.690;2022-10-16T01:13:22;100776.72;;;15.55;79.50
53858;BME280;39763;51.188;6.690;2022-10-16T01:14:58;100775.91;;;15.53;79.23
53858;BME280;39763;51.188;6.690;2022-10-16T01:16:37;100775.13;;;15.51;79.63
53858;BME280;39763;51.188;6.690;2022-10-16T01:18:14;100772.47;;;15.51;79.32
53858;BME280;39763;51.188;6.690;2022-10-16T01:19:59;100774.19;;;15.52;79.60
53858;BME280;39763;51.188;6.690;2022-10-16T01:21:36;100780.41;;;15.51;79.38
53858;BME280;39763;51.188;6.690;2022-10-16T01:23:18;100787.66;;;15.47;79.37
53858;BME280;39763;51.188;6.690;2022-10-16T01:24:54;100792.16;;;15.45;79.61
53858;BME280;39763;51.188;6.690;2022-10-16T01:26:36;100780.13;;;15.40;79.54
53858;BME280;39763;51.188;6.690;2022-10-16T01:28:14;100775.84;;;15.37;79.93
53858;BME280;39763;51.188;6.690;2022-10-16T01:29:52;100781.22;;;15.36;80.05
53858;BME280;39763;51.188;6.690;2022-10-16T01:31:27;100778.66;;;15.34;79.83
53858;BME280;39763;51.188;6.690;2022-10-16T01:33:02;100774.28;;;15.33;79.89
53858;BME280;39763;51.188;6.690;2022-10-16T01:34:43;100777.00;;;15.32;79.91
53858;BME280;39763;51.188;6.690;2022-10-16T01:36:21;100764.72;;;15.31;80.25
53858;BME280;39763;51.188;6.690;2022-10-16T01:38:02;100773.50;;;15.31;80.43
53858;BME280;39763;51.188;6.690;2022-10-16T01:39:37;100769.94;;;15.32;80.22
53858;BME280;39763;51.188;6.690;2022-10-16T01:41:14;100776.00;;;15.34;80.28
53858;BME280;39763;51.188;6.690;2022-10-16T01:42:50;100765.41;;;15.34;79.96
53858;BME280;39763;51.188;6.690;2022-10-16T01:44:27;100770.72;;;15.34;80.03
53858;BME280;39763;51.188;6.690;2022-10-16T01:46:01;100769.84;;;15.34;79.96
53858;BME280;39763;51.188;6.690;2022-10-16T01:47:34;100777.72;;;15.35;80.31
53858;BME280;39763;51.188;6.690;2022-10-16T01:49:08;100783.00;;;15.35;80.31
53858;BME280;39763;51.188;6.690;2022-10-16T01:50:43;100779.50;;;15.35;80.07
53858;BME280;39763;51.188;6.690;2022-10-16T01:52:17;100798.97;;;15.34;80.21
53858;BME280;39763;51.188;6.690;2022-10-16T01:53:52;100790.94;;;15.35;80.13
53858;BME280;39763;51.188;6.690;2022-10-16T01:55:28;100786.44;;;15.37;79.90
53858;BME280;39763;51.188;6.690;2022-10-16T01:57:01;100789.94;;;15.38;80.02
53858;BME280;39763;51.188;6.690;2022-10-16T01:58:37;100784.56;;;15.39;79.94
53858;BME280;39763;51.188;6.690;2022-10-16T02:00:14;100783.72;;;15.39;80.32
53858;BME280;39763;51.188;6.690;2022-10-16T02:01:48;100783.63;;;15.40;80.19
53858;BME280;39763;51.188;6.690;2022-10-16T02:03:22;100776.56;;;15.41;80.15
53858;BME280;39763;51.188;6.690;2022-10-16T02:04:58;100778.25;;;15.42;80.12
53858;BME280;39763;51.188;6.690;2022-10-16T02:06:31;100766.81;;;15.41;79.80
53858;BME280;39763;51.188;6.690;2022-10-16T02:08:03;100790.72;;;15.40;79.81
53858;BME280;39763;51.188;6.690;2022-10-16T02:09:36;100781.06;;;15.39;79.83
53858;BME280;39763;51.188;6.690;2022-10-16T02:11:08;100789.00;;;15.39;80.33
53858;BME280;39763;51.188;6.690;2022-10-16T02:12:42;100780.22;;;15.38;80.27
53858;BME280;39763;51.188;6.690;2022-10-16T02:14:16;100787.28;;;15.38;80.14
53858;BME280;39763;51.188;6.690;2022-10-16T02:15:49;100791.66;;;15.39;79.97
53858;BME280;39763;51.188;6.690;2022-10-16T02:17:25;100796.09;;;15.38;79.73
53858;BME280;39763;51.188;6.690;2022-10-16T02:18:56;100794.28;;;15.39;79.71
53858;BME280;39763;51.188;6.690;2022-10-16T02:20:32;100796.94;;;15.39;79.66
53858;BME280;39763;51.188;6.690;2022-10-16T02:22:07;100792.44;;;15.41;79.84
53858;BME280;39763;51.188;6.690;2022-10-16T02:23:45;100794.28;;;15.39;79.81
53858;BME280;39763;51.188;6.690;2022-10-16T02:25:22;100794.28;;;15.39;79.47
53858;BME280;39763;51.188;6.690;2022-10-16T02:26:59;100797.81;;;15.39;79.58
53858;BME280;39763;51.188;6.690;2022-10-16T02:28:37;100792.59;;;15.38;79.80
53858;BME280;39763;51.188;6.690;2022-10-16T02:30:14;100798.66;;;15.40;79.61
53858;BME280;39763;51.188;6.690;2022-10-16T02:31:55;100802.22;;;15.39;79.36
53858;BME280;39763;51.188;6.690;2022-10-16T02:33:30;100792.59;;;15.38;79.27
53858;BME280;39763;51.188;6.690;2022-10-16T02:35:04;100802.31;;;15.37;78.94
53858;BME280;39763;51.188;6.690;2022-10-16T02:36:36;100797.03;;;15.37;79.20
53858;BME280;39763;51.188;6.690;2022-10-16T02:38:09;100801.44;;;15.37;78.86
53858;BME280;39763;51.188;6.690;2022-10-16T02:39:46;100799.66;;;15.37;78.97
53858;BME280;39763;51.188;6.690;2022-10-16T02:41:18;100797.09;;;15.36;79.02
53858;BME280;39763;51.188;6.690;2022-10-16T02:42:51;100797.94;;;15.36;79.03
53858;BME280;39763;51.188;6.690;2022-10-16T02:44:23;100797.09;;;15.36;79.08
53858;BME280;39763;51.188;6.690;2022-10-16T02:45:54;100785.50;;;15.38;79.08
53858;BME280;39763;51.188;6.690;2022-10-16T02:47:27;100787.13;;;15.41;78.83
53858;BME280;39763;51.188;6.690;2022-10-16T02:48:59;100788.00;;;15.41;78.79
53858;BME280;39763;51.188;6.690;2022-10-16T02:50:31;100789.78;;;15.41;78.61
53858;BME280;39763;51.188;6.690;2022-10-16T02:52:03;100788.84;;;15.42;78.35
53858;BME280;39763;51.188;6.690;2022-10-16T02:53:34;100792.44;;;15.41;78.51
53858;BME280;39763;51.188;6.690;2022-10-16T02:55:07;100801.31;;;15.40;78.38
53858;BME280;39763;51.188;6.690;2022-10-16T02:56:39;100801.22;;;15.41;78.47
53858;BME280;39763;51.188;6.690;2022-10-16T02:58:10;100799.50;;;15.40;78.09
53858;BME280;39763;51.188;6.690;2022-10-16T02:59:42;100800.44;;;15.39;78.17
53858;BME280;39763;51.188;6.690;2022-10-16T03:01:14;100806.75;;;15.37;78.36
53858;BME280;39763;51.188;6.690;2022-10-16T03:02:49;100799.75;;;15.36;78.56
53858;BME280;39763;51.188;6.690;2022-10-16T03:04:21;100799.91;;;15.33;78.42
53858;BME280;39763;51.188;6.690;2022-10-16T03:05:53;100799.91;;;15.33;78.18
53858;BME280;39763;51.188;6.690;2022-10-16T03:07:24;100804.31;;;15.32;78.56
53858;BME280;39763;51.188;6.690;2022-10-16T03:08:57;100800.03;;;15.30;78.60
53858;BME280;39763;51.188;6.690;2022-10-16T03:10:28;100801.75;;;15.31;78.39
53858;BME280;39763;51.188;6.690;2022-10-16T03:12:00;100804.31;;;15.32;78.41
53858;BME280;39763;51.188;6.690;2022-10-16T03:13:32;100802.53;;;15.33;78.30
53858;BME280;39763;51.188;6.690;2022-10-16T03:15:04;100801.69;;;15.32;78.36
53858;BME280;39763;51.188;6.690;2022-10-16T03:16:36;100801.75;;;15.31;78.32
53858;BME280;39763;51.188;6.690;2022-10-16T03:18:09;100786.81;;;15.30;78.42
53858;BME280;39763;51.188;6.690;2022-10-16T03:19:40;100798.31;;;15.29;78.39
53858;BME280;39763;51.188;6.690;2022-10-16T03:21:12;100798.31;;;15.29;78.21
53858;BME280;39763;51.188;6.690;2022-10-16T03:22:44;100793.91;;;15.29;78.06
53858;BME280;39763;51.188;6.690;2022-10-16T03:24:15;100790.50;;;15.27;78.13
53858;BME280;39763;51.188;6.690;2022-10-16T03:25:47;100794.00;;;15.28;78.30
53858;BME280;39763;51.188;6.690;2022-10-16T03:27:19;100795.00;;;15.25;78.14
53858;BME280;39763;51.188;6.690;2022-10-16T03:28:50;100795.09;;;15.24;78.29
53858;BME280;39763;51.188;6.690;2022-10-16T03:30:22;100803.09;;;15.22;78.08
53858;BME280;39763;51.188;6.690;2022-10-16T03:31:54;100798.75;;;15.21;78.30
53858;BME280;39763;51.188;6.690;2022-10-16T03:33:26;100803.19;;;15.21;78.32
53858;BME280;39763;51.188;6.690;2022-10-16T03:34:58;100802.38;;;15.18;78.30
53858;BME280;39763;51.188;6.690;2022-10-16T03:36:30;100804.19;;;15.18;78.08
53858;BME280;39763;51.188;6.690;2022-10-16T03:38:01;100801.53;;;15.18;78.25
53858;BME280;39763;51.188;6.690;2022-10-16T03:39:33;100811.25;;;15.17;78.48
53858;BME280;39763;51.188;6.690;2022-10-16T03:41:05;100810.47;;;15.15;78.12
53858;BME280;39763;51.188;6.690;2022-10-16T03:42:39;100804.44;;;15.13;78.12
53858;BME280;39763;51.188;6.690;2022-10-16T03:44:10;100806.31;;;15.11;78.30
53858;BME280;39763;51.188;6.690;2022-10-16T03:45:43;100804.59;;;15.10;78.48
53858;BME280;39763;51.188;6.690;2022-10-16T03:47:14;100805.59;;;15.08;78.46
53858;BME280;39763;51.188;6.690;2022-10-16T03:48:47;100795.09;;;15.06;78.40
53858;BME280;39763;51.188;6.690;2022-10-16T03:50:19;100810.94;;;15.06;78.33
53858;BME280;39763;51.188;6.690;2022-10-16T03:51:51;100814.59;;;15.04;78.18
53858;BME280;39763;51.188;6.690;2022-10-16T03:53:22;100815.53;;;15.03;78.33
53858;BME280;39763;51.188;6.690;2022-10-16T03:54:54;100811.16;;;15.02;78.33
53858;BME280;39763;51.188;6.690;2022-10-16T03:56:26;100821.81;;;15.00;78.43
53858;BME280;39763;51.188;6.690;2022-10-16T03:57:57;100820.22;;;14.98;78.49
53858;BME280;39763;51.188;6.690;2022-10-16T03:59:29;100813.28;;;14.95;78.31
53858;BME280;39763;51.188;6.690;2022-10-16T04:01:01;100818.66;;;14.94;78.22
53858;BME280;39763;51.188;6.690;2022-10-16T04:02:32;100818.88;;;14.89;78.54
53858;BME280;39763;51.188;6.690;2022-10-16T04:04:06;100820.81;;;14.86;78.79
53858;BME280;39763;51.188;6.690;2022-10-16T04:05:37;100822.69;;;14.84;78.68
53858;BME280;39763;51.188;6.690;2022-10-16T04:07:09;100834.28;;;14.81;78.84
53858;BME280;39763;51.188;6.690;2022-10-16T04:08:42;100828.06;;;14.82;78.92
53858;BME280;39763;51.188;6.690;2022-10-16T04:10:14;100823.69;;;14.81;78.77
53858;BME280;39763;51.188;6.690;2022-10-16T04:11:45;100825.41;;;14.82;78.79
53858;BME280;39763;51.188;6.690;2022-10-16T04:13:17;100829.75;;;14.83;78.90
53858;BME280;39763;51.188;6.690;2022-10-16T04:14:53;100833.34;;;14.82;78.83
53858;BME280;39763;51.188;6.690;2022-10-16T04:16:25;100832.47;;;14.81;78.80
53858;BME280;39763;51.188;6.690;2022-10-16T04:17:57;100839.63;;;14.79;78.72
53858;BME280;39763;51.188;6.690;2022-10-16T04:19:30;100837.97;;;14.77;78.82
53858;BME280;39763;51.188;6.690;2022-10-16T04:21:03;100847.78;;;14.75;79.09
53858;BME280;39763;51.188;6.690;2022-10-16T04:22:34;100846.97;;;14.73;78.99
53858;BME280;39763;51.188;6.690;2022-10-16T04:24:06;100848.78;;;14.72;79.20
53858;BME280;39763;51.188;6.690;2022-10-16T04:25:37;100852.41;;;14.70;79.27
53858;BME280;39763;51.188;6.690;2022-10-16T04:27:09;100849.94;;;14.67;79.08
53858;BME280;39763;51.188;6.690;2022-10-16T04:28:41;100862.31;;;14.66;79.26
53858;BME280;39763;51.188;6.690;2022-10-16T04:30:13;100865.94;;;14.64;79.38
53858;BME280;39763;51.188;6.690;2022-10-16T04:31:45;100860.66;;;14.64;79.45
53858;BME280;39763;51.188;6.690;2022-10-16T04:33:16;100864.22;;;14.63;79.45
53858;BME280;39763;51.188;6.690;2022-10-16T04:34:49;100855.38;;;14.64;79.53
53858;BME280;39763;51.188;6.690;2022-10-16T04:36:21;100856.22;;;14.64;79.37
53858;BME280;39763;51.188;6.690;2022-10-16T04:37:57;100859.88;;;14.62;79.35
53858;BME280;39763;51.188;6.690;2022-10-16T04:39:29;100850.16;;;14.62;79.34
53858;BME280;39763;51.188;6.690;2022-10-16T04:41:00;100842.16;;;14.64;79.52
53858;BME280;39763;51.188;6.690;2022-10-16T04:42:32;100839.31;;;14.68;79.38
53858;BME280;39763;51.188;6.690;2022-10-16T04:44:04;100849.00;;;14.68;79.33
53858;BME280;39763;51.188;6.690;2022-10-16T04:45:35;100849.94;;;14.67;79.15
53858;BME280;39763;51.188;6.690;2022-10-16T04:47:07;100862.38;;;14.65;79.43
53858;BME280;39763;51.188;6.690;2022-10-16T04:48:39;100859.72;;;14.65;79.32
53858;BME280;39763;51.188;6.690;2022-10-16T04:50:12;100870.31;;;14.65;79.46
53858;BME280;39763;51.188;6.690;2022-10-16T04:51:43;100872.94;;;14.65;79.42
53858;BME280;39763;51.188;6.690;2022-10-16T04:53:15;100874.72;;;14.64;79.52
53858;BME280;39763;51.188;6.690;2022-10-16T04:54:47;100879.94;;;14.66;79.45
53858;BME280;39763;51.188;6.690;2022-10-16T04:56:18;100887.88;;;14.66;79.55
53858;BME280;39763;51.188;6.690;2022-10-16T04:57:50;100890.53;;;14.66;79.41
53858;BME280;39763;51.188;6.690;2022-10-16T04:59:22;100890.53;;;14.66;79.51
53858;BME280;39763;51.188;6.690;2022-10-16T05:00:54;100881.75;;;14.65;79.46
53858;BME280;39763;51.188;6.690;2022-10-16T05:02:26;100888.75;;;14.66;79.58
53858;BME280;39763;51.188;6.690;2022-10-16T05:03:58;100893.16;;;14.66;79.59
53858;BME280;39763;51.188;6.690;2022-10-16T05:05:31;100883.53;;;14.65;79.67
53858;BME280;39763;51.188;6.690;2022-10-16T05:07:02;100889.72;;;14.64;79.44
53858;BME280;39763;51.188;6.690;2022-10-16T05:08:34;100895.88;;;14.64;79.63
53858;BME280;39763;51.188;6.690;2022-10-16T05:10:06;100889.88;;;14.61;79.72
53858;BME280;39763;51.188;6.690;2022-10-16T05:11:38;100884.59;;;14.61;79.83
53858;BME280;39763;51.188;6.690;2022-10-16T05:13:10;100889.00;;;14.60;79.82
53858;BME280;39763;51.188;6.690;2022-10-16T05:14:42;100891.59;;;14.62;79.80
53858;BME280;39763;51.188;6.690;2022-10-16T05:16:14;100902.16;;;14.62;79.78
53858;BME280;39763;51.188;6.690;2022-10-16T05:17:45;100897.81;;;14.61;79.71
53858;BME280;39763;51.188;6.690;2022-10-16T05:19:17;100907.53;;;14.60;79.81
53858;BME280;39763;51.188;6.690;2022-10-16T05:21:00;100905.81;;;14.59;80.01
53858;BME280;39763;51.188;6.690;2022-10-16T05:22:31;100911.03;;;14.61;79.79
53858;BME280;39763;51.188;6.690;2022-10-16T05:24:03;100911.94;;;14.60;79.76
53858;BME280;39763;51.188;6.690;2022-10-16T05:25:35;100916.31;;;14.61;79.83
53858;BME280;39763;51.188;6.690;2022-10-16T05:27:06;100908.38;;;14.61;79.72
53858;BME280;39763;51.188;6.690;2022-10-16T05:28:38;100911.88;;;14.61;79.87
53858;BME280;39763;51.188;6.690;2022-10-16T05:30:10;100907.44;;;14.62;79.88
53858;BME280;39763;51.188;6.690;2022-10-16T05:31:43;100910.09;;;14.62;79.90
53858;BME280;39763;51.188;6.690;2022-10-16T05:33:14;100906.53;;;14.63;79.90
53858;BME280;39763;51.188;6.690;2022-10-16T05:34:46;100909.16;;;14.63;79.95
53858;BME280;39763;51.188;6.690;2022-10-16T05:36:19;100915.31;;;14.63;79.93
53858;BME280;39763;51.188;6.690;2022-10-16T05:37:52;100920.59;;;14.63;79.84
53858;BME280;39763;51.188;6.690;2022-10-16T05:39:24;100912.72;;;14.62;79.79
53858;BME280;39763;51.188;6.690;2022-10-16T05:40:55;100926.88;;;14.61;79.98
53858;BME280;39763;51.188;6.690;2022-10-16T05:42:27;100927.88;;;14.58;80.12
53858;BME280;39763;51.188;6.690;2022-10-16T05:43:59;100925.38;;;14.55;80.26
53858;BME280;39763;51.188;6.690;2022-10-16T05:45:31;100936.03;;;14.54;79.95
53858;BME280;39763;51.188;6.690;2022-10-16T05:47:02;100938.69;;;14.54;80.27
53858;BME280;39763;51.188;6.690;2022-10-16T05:48:34;100930.75;;;14.54;80.26
53858;BME280;39763;51.188;6.690;2022-10-16T05:50:06;100934.31;;;14.53;80.68
53858;BME280;39763;51.188;6.690;2022-10-16T05:51:40;100934.31;;;14.53;80.26
53858;BME280;39763;51.188;6.690;2022-10-16T05:53:12;100939.59;;;14.53;80.27
53858;BME280;39763;51.188;6.690;2022-10-16T05:54:44;100936.09;;;14.52;80.12
53858;BME280;39763;51.188;6.690;2022-10-16T05:56:16;100928.25;;;14.51;80.26
53858;BME280;39763;51.188;6.690;2022-10-16T05:57:47;100942.31;;;14.51;80.45
53858;BME280;39763;51.188;6.690;2022-10-16T05:59:19;100953.75;;;14.52;80.47
53858;BME280;39763;51.188;6.690;2022-10-16T06:00:54;100957.31;;;14.51;80.34
53858;BME280;39763;51.188;6.690;2022-10-16T06:02:26;100955.53;;;14.51;80.47
53858;BME280;39763;51.188;6.690;2022-10-16T06:03:58;100952.03;;;14.51;80.51
53858;BME280;39763;51.188;6.690;2022-10-16T06:05:30;100959.09;;;14.50;80.46
53858;BME280;39763;51.188;6.690;2022-10-16T06:07:03;100959.03;;;14.52;80.52
53858;BME280;39763;51.188;6.690;2022-10-16T06:08:35;100960.88;;;14.50;80.69
53858;BME280;39763;51.188;6.690;2022-10-16T06:10:07;100967.03;;;14.50;80.64
53858;BME280;39763;51.188;6.690;2022-10-16T06:11:40;100958.31;;;14.48;80.73
53858;BME280;39763;51.188;6.690;2022-10-16T06:13:12;100970.59;;;14.49;80.63
53858;BME280;39763;51.188;6.690;2022-10-16T06:14:44;100972.31;;;14.50;80.71
53858;BME280;39763;51.188;6.690;2022-10-16T06:16:21;100971.38;;;14.51;80.57
53858;BME280;39763;51.188;6.690;2022-10-16T06:17:52;100968.69;;;14.53;80.85
53858;BME280;39763;51.188;6.690;2022-10-16T06:19:24;100965.19;;;14.52;80.77
53858;BME280;39763;51.188;6.690;2022-10-16T06:20:56;100969.44;;;14.55;80.81
53858;BME280;39763;51.188;6.690;2022-10-16T06:22:29;100970.22;;;14.57;80.68
53858;BME280;39763;51.188;6.690;2022-10-16T06:24:01;100983.38;;;14.58;80.78
53858;BME280;39763;51.188;6.690;2022-10-16T06:25:33;100982.47;;;14.59;80.58
53858;BME280;39763;51.188;6.690;2022-10-16T06:27:05;100984.19;;;14.60;80.61
53858;BME280;39763;51.188;6.690;2022-10-16T06:28:37;100970.03;;;14.61;80.75
53858;BME280;39763;51.188;6.690;2022-10-16T06:30:10;100974.31;;;14.64;80.63
53858;BME280;39763;51.188;6.690;2022-10-16T06:31:41;100978.69;;;14.65;80.59
53858;BME280;39763;51.188;6.690;2022-10-16T06:33:13;100977.75;;;14.66;80.72
53858;BME280;39763;51.188;6.690;2022-10-16T06:34:45;100974.13;;;14.68;80.56
53858;BME280;39763;51.188;6.690;2022-10-16T06:36:17;100981.09;;;14.69;80.66
53858;BME280;39763;51.188;6.690;2022-10-16T06:37:52;100983.66;;;14.71;80.46
53858;BME280;39763;51.188;6.690;2022-10-16T06:39:24;100991.53;;;14.72;80.51
53858;BME280;39763;51.188;6.690;2022-10-16T06:40:56;100993.31;;;14.72;80.58
53858;BME280;39763;51.188;6.690;2022-10-16T06:42:27;100994.19;;;14.72;80.47
53858;BME280;39763;51.188;6.690;2022-10-16T06:44:00;100995.97;;;14.72;80.71
53858;BME280;39763;51.188;6.690;2022-10-16T06:45:32;100998.47;;;14.75;80.70
53858;BME280;39763;51.188;6.690;2022-10-16T06:47:04;101003.63;;;14.78;80.69
53858;BME280;39763;51.188;6.690;2022-10-16T06:48:36;101007.94;;;14.80;80.28
53858;BME280;39763;51.188;6.690;2022-10-16T06:50:08;101005.97;;;14.84;80.60
53858;BME280;39763;51.188;6.690;2022-10-16T06:51:40;101012.13;;;14.85;80.50
53858;BME280;39763;51.188;6.690;2022-10-16T06:53:15;101020.78;;;14.88;80.47
53858;BME280;39763;51.188;6.690;2022-10-16T06:54:47;101004.84;;;14.90;80.68
53858;BME280;39763;51.188;6.690;2022-10-16T06:56:20;101018.84;;;14.92;80.63
53858;BME280;39763;51.188;6.690;2022-10-16T06:57:52;101020.50;;;14.94;80.62
53858;BME280;39763;51.188;6.690;2022-10-16T06:59:24;101021.44;;;14.93;80.47
53858;BME280;39763;51.188;6.690;2022-10-16T07:00:55;101025.00;;;14.92;80.42
53858;BME280;39763;51.188;6.690;2022-10-16T07:02:28;101029.38;;;14.93;80.67
53858;BME280;39763;51.188;6.690;2022-10-16T07:04:01;101027.56;;;14.94;80.56
53858;BME280;39763;51.188;6.690;2022-10-16T07:05:37;101029.22;;;14.96;80.59
53858;BME280;39763;51.188;6.690;2022-10-16T07:07:09;101026.50;;;14.98;80.46
53858;BME280;39763;51.188;6.690;2022-10-16T07:08:43;101042.28;;;14.99;80.68
53858;BME280;39763;51.188;6.690;2022-10-16T07:10:15;101035.22;;;15.00;80.50
53858;BME280;39763;51.188;6.690;2022-10-16T07:11:47;101044.00;;;15.00;80.56
53858;BME280;39763;51.188;6.690;2022-10-16T07:13:19;101043.16;;;15.00;80.40
53858;BME280;39763;51.188;6.690;2022-10-16T07:14:51;101054.59;;;15.00;80.32
53858;BME280;39763;51.188;6.690;2022-10-16T07:16:26;101048.38;;;15.01;80.57
53858;BME280;39763;51.188;6.690;2022-10-16T07:17:57;101053.66;;;15.01;80.42
53858;BME280;39763;51.188;6.690;2022-10-16T07:19:29;101065.03;;;15.03;80.58
53858;BME280;39763;51.188;6.690;2022-10-16T07:21:06;101059.66;;;15.05;80.31
53858;BME280;39763;51.188;6.690;2022-10-16T07:22:38;101056.09;;;15.06;80.48
53858;BME280;39763;51.188;6.690;2022-10-16T07:24:13;101063.03;;;15.08;80.43
53858;BME280;39763;51.188;6.690;2022-10-16T07:25:45;101068.19;;;15.11;80.21
53858;BME280;39763;51.188;6.690;2022-10-16T07:27:17;101065.31;;;15.16;80.40
53858;BME280;39763;51.188;6.690;2022-10-16T07:28:48;101074.97;;;15.17;80.05
53858;BME280;39763;51.188;6.690;2022-10-16T07:30:20;101074.09;;;15.16;80.27
53858;BME280;39763;51.188;6.690;2022-10-16T07:31:52;101065.31;;;15.16;80.06
53858;BME280;39763;51.188;6.690;2022-10-16T07:33:24;101066.97;;;15.18;80.25
53858;BME280;39763;51.188;6.690;2022-10-16T07:34:55;101072.25;;;15.18;79.99
53858;BME280;39763;51.188;6.690;2022-10-16T07:36:27;101076.56;;;15.21;79.99
53858;BME280;39763;51.188;6.690;2022-10-16T07:37:59;101065.91;;;15.23;79.90
53858;BME280;39763;51.188;6.690;2022-10-16T07:39:32;101075.25;;;15.30;80.15
53858;BME280;39763;51.188;6.690;2022-10-16T07:41:05;101079.53;;;15.32;79.70
53858;BME280;39763;51.188;6.690;2022-10-16T07:42:37;101081.25;;;15.33;79.72
53858;BME280;39763;51.188;6.690;2022-10-16T07:44:09;101088.00;;;15.40;79.49
53858;BME280;39763;51.188;6.690;2022-10-16T07:45:47;101087.56;;;15.49;79.23
53858;BME280;39763;51.188;6.690;2022-10-16T07:47:20;101092.59;;;15.56;78.84
53858;BME280;39763;51.188;6.690;2022-10-16T07:48:52;101093.06;;;15.64;78.97
53858;BME280;39763;51.188;6.690;2022-10-16T07:50:24;101101.59;;;15.70;78.52
53858;BME280;39763;51.188;6.690;2022-10-16T07:51:56;101093.41;;;15.75;78.29
53858;BME280;39763;51.188;6.690;2022-10-16T07:53:28;101095.69;;;15.82;78.43
53858;BME280;39763;51.188;6.690;2022-10-16T07:55:01;101099.75;;;15.90;77.97
53858;BME280;39763;51.188;6.690;2022-10-16T07:56:33;101110.91;;;15.96;77.61
53858;BME280;39763;51.188;6.690;2022-10-16T07:58:05;101104.59;;;15.99;77.28
53858;BME280;39763;51.188;6.690;2022-10-16T07:59:37;101105.13;;;16.05;77.37
53858;BME280;39763;51.188;6.690;2022-10-16T08:01:10;101111.94;;;16.11;77.12
53858;BME280;39763;51.188;6.690;2022-10-16T08:02:42;101112.66;;;16.14;76.82
53858;BME280;39763;51.188;6.690;2022-10-16T08:04:13;101119.50;;;16.18;76.86
53858;BME280;39763;51.188;6.690;2022-10-16T08:05:45;101112.09;;;16.25;76.48
53858;BME280;39763;51.188;6.690;2022-10-16T08:07:17;101117.25;;;16.28;75.75